createdAt,value
2023-05-17T00:02:00.071Z,23.15
2023-05-17T00:04:29.537Z,23.16
2023-05-17T00:06:57.651Z,23.14
2023-05-17T00:09:25.658Z,23.14
2023-05-17T00:11:53.728Z,23.12
2023-05-17T00:14:21.804Z,23.12
2023-05-17T00:16:49.876Z,23.11
2023-05-17T00:19:18.006Z,23.12
2023-05-17T00:21:47.510Z,23.12
2023-05-17T00:24:15.405Z,23.13
2023-05-17T00:26:43.569Z,23.12
2023-05-17T00:29:11.946Z,23.11
2023-05-17T00:31:39.927Z,23.11
2023-05-17T00:34:07.984Z,23.13
2023-05-17T00:36:35.964Z,23.13
2023-05-17T00:39:05.440Z,23.12
2023-05-17T00:41:33.442Z,23.12
2023-05-17T00:44:01.420Z,23.12
2023-05-17T00:46:29.410Z,23.12
2023-05-17T00:48:57.556Z,23.11
2023-05-17T00:51:25.669Z,23.12
2023-05-17T00:53:53.622Z,23.10
2023-05-17T00:56:22.919Z,23.10
2023-05-17T00:58:50.970Z,23.08
2023-05-17T01:01:18.936Z,23.06
2023-05-17T01:03:47.339Z,23.07
2023-05-17T01:06:15.503Z,23.06
2023-05-17T01:08:43.616Z,23.04
2023-05-17T01:11:15.665Z,23.03
2023-05-17T01:13:50.044Z,23.03
2023-05-17T01:16:19.968Z,23.03
2023-05-17T01:18:50.061Z,23.01
2023-05-17T01:21:26.839Z,23.00
2023-05-17T01:23:57.253Z,23.02
2023-05-17T01:26:40.986Z,23.03
2023-05-17T01:29:10.022Z,23.02
2023-05-17T01:31:38.197Z,23.03
2023-05-17T01:34:08.516Z,23.04
2023-05-17T01:36:37.384Z,23.04
2023-05-17T01:39:05.560Z,23.04
2023-05-17T01:41:37.954Z,23.05
2023-05-17T01:44:09.717Z,23.04
2023-05-17T01:46:40.585Z,23.04
2023-05-17T01:49:12.078Z,23.04
2023-05-17T01:51:46.434Z,23.03
2023-05-17T01:54:14.428Z,23.02
2023-05-17T01:56:44.912Z,23.03
2023-05-17T01:59:13.001Z,23.01
2023-05-17T02:01:40.997Z,23.01
2023-05-17T02:04:09.224Z,23.02
2023-05-17T02:06:37.404Z,23.00
2023-05-17T02:09:05.624Z,22.98
2023-05-17T02:11:33.660Z,22.95
2023-05-17T02:14:02.980Z,22.93
2023-05-17T02:16:31.051Z,22.93
2023-05-17T02:18:59.179Z,22.93
2023-05-17T02:21:27.324Z,22.92
2023-05-17T02:23:55.796Z,22.91
2023-05-17T02:26:23.873Z,22.92
2023-05-17T02:28:51.877Z,22.92
2023-05-17T02:31:21.266Z,22.95
2023-05-17T02:33:49.241Z,22.95
2023-05-17T02:36:17.280Z,22.95
2023-05-17T02:38:45.338Z,22.96
2023-05-17T02:41:13.346Z,22.97
2023-05-17T02:43:41.754Z,22.98
2023-05-17T02:46:09.788Z,22.98
2023-05-17T02:48:39.220Z,22.98
2023-05-17T02:51:07.472Z,22.97
2023-05-17T02:53:35.443Z,22.97
2023-05-17T02:56:04.126Z,22.98
2023-05-17T02:58:32.177Z,22.98
2023-05-17T03:01:00.188Z,22.97
2023-05-17T03:03:28.347Z,22.95
2023-05-17T03:06:01.072Z,22.93
2023-05-17T03:08:29.197Z,22.92
2023-05-17T03:10:58.575Z,22.93
2023-05-17T03:13:26.712Z,22.93
2023-05-17T03:15:54.748Z,22.90
2023-05-17T03:18:22.915Z,22.89
2023-05-17T03:20:51.031Z,22.90
2023-05-17T03:23:21.513Z,22.89
2023-05-17T03:25:49.509Z,22.89
2023-05-17T03:28:17.582Z,22.88
2023-05-17T03:30:45.725Z,22.88
2023-05-17T03:33:13.792Z,22.90
2023-05-17T03:35:41.857Z,22.90
2023-05-17T03:38:09.912Z,22.90
2023-05-17T03:40:39.246Z,22.91
2023-05-17T03:43:07.228Z,22.91
2023-05-17T03:45:35.156Z,22.92
2023-05-17T03:48:03.264Z,22.92
2023-05-17T03:50:32.712Z,22.92
2023-05-17T03:53:00.794Z,22.92
2023-05-17T03:55:28.967Z,22.90
2023-05-17T03:57:58.472Z,22.89
2023-05-17T04:00:26.415Z,22.90
2023-05-17T04:02:54.437Z,22.90
2023-05-17T04:05:23.666Z,22.89
2023-05-17T04:07:51.792Z,22.89
2023-05-17T04:10:19.823Z,22.89
2023-05-17T04:12:47.860Z,22.89
2023-05-17T04:15:19.064Z,22.87
2023-05-17T04:17:47.160Z,22.87
2023-05-17T04:20:15.313Z,22.86
2023-05-17T04:22:43.260Z,22.86
2023-05-17T04:25:11.443Z,22.86
2023-05-17T04:27:40.102Z,22.85
2023-05-17T04:30:09.457Z,22.87
2023-05-17T04:32:38.908Z,22.87
2023-05-17T04:35:07.708Z,22.87
2023-05-17T04:37:36.412Z,22.87
2023-05-17T04:40:04.555Z,22.86
2023-05-17T04:42:32.539Z,22.87
2023-05-17T04:45:00.601Z,22.87
2023-05-17T04:47:28.776Z,22.88
2023-05-17T04:49:58.220Z,22.88
2023-05-17T04:52:26.167Z,22.87
2023-05-17T04:54:54.179Z,22.87
2023-05-17T04:57:22.594Z,22.87
2023-05-17T04:59:50.729Z,22.87
2023-05-17T05:02:18.782Z,22.86
2023-05-17T05:04:47.083Z,22.86
2023-05-17T05:07:19.213Z,22.86
2023-05-17T05:09:47.205Z,22.85
2023-05-17T05:12:15.188Z,22.85
2023-05-17T05:14:43.313Z,22.84
2023-05-17T05:17:11.278Z,22.84
2023-05-17T05:19:39.395Z,22.86
2023-05-17T05:22:07.423Z,22.87
2023-05-17T05:24:36.751Z,22.86
2023-05-17T05:27:06.971Z,22.86
2023-05-17T05:29:35.193Z,22.87
2023-05-17T05:32:03.396Z,22.87
2023-05-17T05:34:31.733Z,22.86
2023-05-17T05:36:59.703Z,22.88
2023-05-17T05:39:29.100Z,22.89
2023-05-17T05:41:58.634Z,22.89
2023-05-17T05:44:26.779Z,22.89
2023-05-17T05:46:54.797Z,22.90
2023-05-17T05:49:22.816Z,22.89
2023-05-17T05:51:50.727Z,22.92
2023-05-17T05:54:18.854Z,22.91
2023-05-17T05:56:46.964Z,22.92
2023-05-17T05:59:16.359Z,22.93
2023-05-17T06:01:44.371Z,22.94
2023-05-17T06:04:12.372Z,22.96
2023-05-17T06:06:40.787Z,22.96
2023-05-17T06:09:12.299Z,22.97
2023-05-17T06:11:40.330Z,22.98
2023-05-17T06:14:08.533Z,22.98
2023-05-17T06:16:37.980Z,22.99
2023-05-17T06:19:05.955Z,23.00
2023-05-17T06:21:33.993Z,23.01
2023-05-17T06:24:04.947Z,23.02
2023-05-17T06:26:33.187Z,23.03
2023-05-17T06:29:01.366Z,23.03
2023-05-17T06:31:29.370Z,23.03
2023-05-17T06:33:58.991Z,23.05
2023-05-17T06:36:27.130Z,23.05
2023-05-17T06:38:55.059Z,23.07
2023-05-17T06:41:25.694Z,23.08
2023-05-17T06:43:53.763Z,23.09
2023-05-17T06:46:21.732Z,23.09
2023-05-17T06:48:51.233Z,23.09
2023-05-17T06:51:21.364Z,23.10
2023-05-17T06:53:50.327Z,23.10
2023-05-17T06:56:18.385Z,23.10
2023-05-17T06:58:46.468Z,23.11
2023-05-17T07:01:14.658Z,23.11
2023-05-17T07:03:42.752Z,23.12
2023-05-17T07:06:10.831Z,23.11
2023-05-17T07:08:40.309Z,23.14
2023-05-17T07:11:08.334Z,23.13
2023-05-17T07:13:36.449Z,23.14
2023-05-17T07:16:04.593Z,23.15
2023-05-17T07:18:32.754Z,23.15
2023-05-17T07:21:00.942Z,23.15
2023-05-17T07:23:29.008Z,23.17
2023-05-17T07:25:58.468Z,23.16
2023-05-17T07:28:29.471Z,23.17
2023-05-17T07:30:57.529Z,23.18
2023-05-17T07:33:25.672Z,23.18
2023-05-17T07:35:53.850Z,23.19
2023-05-17T07:38:21.855Z,23.19
2023-05-17T07:40:49.786Z,23.20
2023-05-17T07:43:19.270Z,23.21
2023-05-17T07:45:47.569Z,23.21
2023-05-17T07:48:15.695Z,23.21
2023-05-17T07:50:44.370Z,23.22
2023-05-17T07:53:12.513Z,23.22
2023-05-17T07:55:40.764Z,23.23
2023-05-17T07:58:09.449Z,23.22
2023-05-17T08:00:38.884Z,23.24
2023-05-17T08:03:08.478Z,23.23
2023-05-17T08:05:36.479Z,23.24
2023-05-17T08:08:04.479Z,23.26
2023-05-17T08:10:32.879Z,23.27
2023-05-17T08:13:00.823Z,23.30
2023-05-17T08:15:29.465Z,23.31
2023-05-17T08:18:00.364Z,23.33
2023-05-17T08:20:29.622Z,23.37
2023-05-17T08:22:57.679Z,23.37
2023-05-17T08:25:25.903Z,23.41
2023-05-17T08:27:53.904Z,23.42
2023-05-17T08:32:56.772Z,23.45
2023-05-17T08:35:28.914Z,23.47
2023-05-17T08:37:57.133Z,23.49
2023-05-17T08:40:25.404Z,23.49
2023-05-17T08:42:53.567Z,23.49
2023-05-17T08:45:22.180Z,23.52
2023-05-17T08:47:51.242Z,23.54
2023-05-17T08:50:19.473Z,23.56
2023-05-17T08:52:48.860Z,23.57
2023-05-17T08:55:18.223Z,23.59
2023-05-17T08:57:47.151Z,23.61
2023-05-17T09:00:16.268Z,23.61
2023-05-17T09:02:44.461Z,23.62
2023-05-17T09:05:14.287Z,23.63
2023-05-17T09:07:42.987Z,23.66
2023-05-17T09:10:13.754Z,23.69
2023-05-17T09:12:41.786Z,23.70
2023-05-17T09:15:16.744Z,23.70
2023-05-17T09:17:44.909Z,23.74
2023-05-17T09:20:13.062Z,23.77
2023-05-17T09:22:41.434Z,23.78
2023-05-17T09:25:10.144Z,23.81
2023-05-17T09:27:39.602Z,23.81
2023-05-17T09:30:11.578Z,23.82
2023-05-17T09:32:44.735Z,23.82
2023-05-17T09:35:13.135Z,23.84
2023-05-17T09:37:41.173Z,23.84
2023-05-17T09:40:12.920Z,23.85
2023-05-17T09:42:42.367Z,23.86
2023-05-17T09:45:10.988Z,23.87
2023-05-17T09:47:39.034Z,23.85
2023-05-17T09:50:08.474Z,23.85
2023-05-17T09:52:37.583Z,23.87
2023-05-17T09:55:06.775Z,23.89
2023-05-17T09:57:38.434Z,23.90
2023-05-17T10:00:11.587Z,23.89
2023-05-17T10:02:41.198Z,23.90
2023-05-17T10:05:11.703Z,23.89
2023-05-17T10:07:39.924Z,23.94
2023-05-17T10:10:09.227Z,23.92
2023-05-17T10:12:38.583Z,23.92
2023-05-17T10:15:09.386Z,23.94
2023-05-17T10:17:39.422Z,23.94
2023-05-17T10:20:10.538Z,23.92
2023-05-17T10:22:38.853Z,23.93
2023-05-17T10:25:07.854Z,23.94
2023-05-17T10:27:35.916Z,23.92
2023-05-17T10:30:04.089Z,23.92
2023-05-17T10:32:33.553Z,23.92
2023-05-17T10:35:10.605Z,23.91
2023-05-17T10:37:41.295Z,23.94
2023-05-17T10:40:13.510Z,23.94
2023-05-17T10:42:42.374Z,23.95
2023-05-17T10:45:10.974Z,23.96
2023-05-17T10:47:41.432Z,23.96
2023-05-17T10:50:13.083Z,23.97
2023-05-17T10:52:46.776Z,24.00
2023-05-17T10:55:14.833Z,24.00
2023-05-17T10:57:50.983Z,24.03
2023-05-17T11:00:21.319Z,24.05
2023-05-17T11:02:51.281Z,24.05
2023-05-17T11:05:25.826Z,24.06
2023-05-17T11:07:54.238Z,24.06
2023-05-17T11:10:22.751Z,24.08
2023-05-17T11:12:55.378Z,24.09
2023-05-17T11:15:26.622Z,24.11
2023-05-17T11:17:57.088Z,24.11
2023-05-17T11:20:32.696Z,24.12
2023-05-17T11:23:02.285Z,24.12
2023-05-17T11:25:30.730Z,24.13
2023-05-17T11:27:59.078Z,24.13
2023-05-17T11:30:28.828Z,24.13
2023-05-17T11:33:01.087Z,24.13
2023-05-17T11:35:30.088Z,24.14
2023-05-17T11:38:16.249Z,24.16
2023-05-17T11:40:44.296Z,24.17
2023-05-17T11:43:16.371Z,24.17
2023-05-17T11:45:45.396Z,24.18
2023-05-17T11:48:15.209Z,24.20
2023-05-17T11:50:43.640Z,24.21
2023-05-17T11:53:11.776Z,24.23
2023-05-17T11:55:40.193Z,24.23
2023-05-17T11:58:09.444Z,24.26
2023-05-17T12:00:38.870Z,24.27
2023-05-17T12:03:26.144Z,24.31
2023-05-17T12:06:04.319Z,24.32
2023-05-17T12:08:32.613Z,24.32
2023-05-17T12:11:21.829Z,24.32
2023-05-17T12:13:52.004Z,24.31
2023-05-17T12:16:22.742Z,24.31
2023-05-17T12:18:52.808Z,24.28
2023-05-17T12:21:21.469Z,24.27
2023-05-17T12:23:52.599Z,24.25
2023-05-17T12:26:21.694Z,24.24
2023-05-17T12:28:54.768Z,24.24
2023-05-17T12:31:23.966Z,24.24
2023-05-17T12:33:53.455Z,24.22
2023-05-17T12:36:21.637Z,24.20
2023-05-17T12:38:49.694Z,24.20
2023-05-17T12:41:17.706Z,24.21
2023-05-17T12:43:46.306Z,24.23
2023-05-17T12:46:14.861Z,24.23
2023-05-17T12:48:43.271Z,24.25
2023-05-17T12:51:13.747Z,24.27
2023-05-17T12:53:42.493Z,24.27
2023-05-17T12:56:10.693Z,24.27
2023-05-17T12:58:38.747Z,24.28
2023-05-17T13:01:10.754Z,24.28
2023-05-17T13:03:38.969Z,24.28
2023-05-17T13:06:09.652Z,24.29
2023-05-17T13:08:39.156Z,24.30
2023-05-17T13:11:08.527Z,24.30
2023-05-17T13:13:36.587Z,24.31
2023-05-17T13:16:04.809Z,24.30
2023-05-17T13:18:35.742Z,24.30
2023-05-17T13:21:03.989Z,24.29
2023-05-17T13:23:32.062Z,24.30
2023-05-17T13:26:01.473Z,24.30
2023-05-17T13:28:29.548Z,24.31
2023-05-17T13:30:57.555Z,24.31
2023-05-17T13:33:26.586Z,24.32
2023-05-17T13:35:54.724Z,24.33
2023-05-17T13:38:25.373Z,24.34
2023-05-17T13:40:53.327Z,24.36
2023-05-17T13:43:22.707Z,24.37
2023-05-17T13:45:54.542Z,24.39
2023-05-17T13:48:22.627Z,24.39
2023-05-17T13:50:50.710Z,24.40
2023-05-17T13:53:18.755Z,24.40
2023-05-17T13:55:46.914Z,24.40
2023-05-17T13:58:16.761Z,24.42
2023-05-17T14:00:46.273Z,24.50
2023-05-17T14:03:14.991Z,24.62
2023-05-17T14:05:43.407Z,24.70
2023-05-17T14:08:12.845Z,24.78
2023-05-17T14:10:40.865Z,24.87
2023-05-17T14:13:08.897Z,24.94
2023-05-17T14:15:38.558Z,25.00
2023-05-17T14:18:08.309Z,25.06
2023-05-17T14:20:36.369Z,25.11
2023-05-17T14:23:04.358Z,25.12
2023-05-17T14:25:32.279Z,25.16
2023-05-17T14:28:00.354Z,25.22
2023-05-17T14:30:28.538Z,25.25
2023-05-17T14:32:56.621Z,25.29
2023-05-17T14:35:26.095Z,25.36
2023-05-17T14:37:54.171Z,25.37
2023-05-17T14:40:22.438Z,25.31
2023-05-17T14:42:50.477Z,25.30
2023-05-17T14:45:19.168Z,25.31
2023-05-17T14:47:47.323Z,25.29
2023-05-17T14:50:15.332Z,25.28
2023-05-17T14:52:44.993Z,25.27
2023-05-17T14:55:13.832Z,25.28
2023-05-17T14:57:42.037Z,25.26
2023-05-17T15:00:11.342Z,25.24
2023-05-17T15:02:39.692Z,25.18
2023-05-17T15:05:08.558Z,25.16
2023-05-17T15:07:36.726Z,25.12
2023-05-17T15:10:07.157Z,25.07
2023-05-17T15:12:35.104Z,25.01
2023-05-17T15:15:03.120Z,24.96
2023-05-17T15:17:31.277Z,24.93
2023-05-17T15:19:59.967Z,24.93
2023-05-17T15:22:27.973Z,24.92
2023-05-17T15:24:57.768Z,24.89
2023-05-17T15:27:27.225Z,24.87
2023-05-17T15:29:55.199Z,24.83
2023-05-17T15:32:23.269Z,24.80
2023-05-17T15:34:52.707Z,24.77
2023-05-17T15:37:20.796Z,24.73
2023-05-17T15:39:48.936Z,24.73
2023-05-17T15:42:16.865Z,24.70
2023-05-17T15:44:46.242Z,24.67
2023-05-17T15:47:14.448Z,24.64
2023-05-17T15:49:42.481Z,24.61
2023-05-17T15:52:12.786Z,24.60
2023-05-17T15:54:42.180Z,24.58
2023-05-17T15:57:10.172Z,24.56
2023-05-17T15:59:38.169Z,24.54
2023-05-17T16:02:07.695Z,24.52
2023-05-17T16:04:35.804Z,24.53
2023-05-17T16:07:03.865Z,24.51
2023-05-17T16:09:31.936Z,24.48
2023-05-17T16:11:59.974Z,24.48
2023-05-17T16:14:28.037Z,24.47
2023-05-17T16:16:56.197Z,24.47
2023-05-17T16:19:26.636Z,24.45
2023-05-17T16:21:54.729Z,24.41
2023-05-17T16:24:22.764Z,24.39
2023-05-17T16:26:50.846Z,24.35
2023-05-17T16:29:19.084Z,24.36
2023-05-17T16:31:47.914Z,24.35
2023-05-17T16:34:16.098Z,24.33
2023-05-17T16:36:47.795Z,24.32
2023-05-17T16:39:15.795Z,24.30
2023-05-17T16:41:43.943Z,24.28
2023-05-17T16:44:12.038Z,24.28
2023-05-17T16:46:40.170Z,24.27
2023-05-17T16:49:08.270Z,24.25
2023-05-17T16:51:36.303Z,24.23
2023-05-17T16:54:06.041Z,24.22
2023-05-17T16:56:34.085Z,24.21
2023-05-17T16:59:02.124Z,24.19
2023-05-17T17:01:30.643Z,24.18
2023-05-17T17:03:58.752Z,24.17
2023-05-17T17:06:26.801Z,24.16
2023-05-17T17:08:57.879Z,24.16
2023-05-17T17:11:27.331Z,24.15
2023-05-17T17:13:55.303Z,24.14
2023-05-17T17:16:23.304Z,24.11
2023-05-17T17:18:51.346Z,24.11
2023-05-17T17:21:19.410Z,24.09
2023-05-17T17:23:47.804Z,24.08
2023-05-17T17:26:16.165Z,24.07
2023-05-17T17:28:45.558Z,24.03
2023-05-17T17:31:13.554Z,24.04
2023-05-17T17:33:41.591Z,24.03
2023-05-17T17:36:11.317Z,24.01
2023-05-17T17:38:39.286Z,24.01
2023-05-17T17:41:07.485Z,24.00
2023-05-17T17:43:35.560Z,24.00
2023-05-17T17:46:05.101Z,23.99
2023-05-17T17:48:33.152Z,23.98
2023-05-17T17:51:01.201Z,23.97
2023-05-17T17:53:29.345Z,23.95
2023-05-17T17:55:57.414Z,23.95
2023-05-17T17:58:25.406Z,23.94
2023-05-17T18:00:53.892Z,23.93
2023-05-17T18:03:23.275Z,23.92
2023-05-17T18:05:51.271Z,23.90
2023-05-17T18:08:19.219Z,23.91
2023-05-17T18:10:47.266Z,23.89
2023-05-17T18:13:15.310Z,23.90
2023-05-17T18:15:44.005Z,23.89
2023-05-17T18:18:12.243Z,23.85
2023-05-17T18:20:41.682Z,23.87
2023-05-17T18:23:09.752Z,23.86
2023-05-17T18:25:37.779Z,23.86
2023-05-17T18:28:08.083Z,23.85
2023-05-17T18:30:36.952Z,23.85
2023-05-17T18:33:07.100Z,23.83
2023-05-17T18:35:35.212Z,23.85
2023-05-17T18:38:04.600Z,23.84
2023-05-17T18:40:32.640Z,23.84
2023-05-17T18:43:00.725Z,23.83
2023-05-17T18:45:28.738Z,23.81
2023-05-17T18:47:56.768Z,23.82
2023-05-17T18:50:24.901Z,23.81
2023-05-17T18:52:53.382Z,23.81
2023-05-17T18:55:24.512Z,23.80
2023-05-17T18:57:52.829Z,23.79
2023-05-17T19:00:21.271Z,23.79
2023-05-17T19:02:49.321Z,23.79
2023-05-17T19:05:17.333Z,23.79
2023-05-17T19:07:45.579Z,23.77
2023-05-17T19:10:48.485Z,23.77
2023-05-17T19:13:16.569Z,23.76
2023-05-17T19:15:51.025Z,23.75
2023-05-17T19:18:20.216Z,23.75
2023-05-17T19:20:48.311Z,23.76
2023-05-17T19:23:19.095Z,23.77
2023-05-17T19:25:48.441Z,23.77
2023-05-17T19:28:17.561Z,23.79
2023-05-17T19:30:45.591Z,23.78
2023-05-17T19:33:13.655Z,23.80
2023-05-17T19:35:43.134Z,23.79
2023-05-17T19:38:11.318Z,23.78
2023-05-17T19:40:47.081Z,23.78
2023-05-17T19:43:16.558Z,23.78
2023-05-17T19:45:44.636Z,23.77
2023-05-17T19:48:18.256Z,23.76
2023-05-17T19:50:46.312Z,23.77
2023-05-17T19:53:14.287Z,23.76
2023-05-17T19:55:45.719Z,23.76
2023-05-17T19:58:13.691Z,23.76
2023-05-17T20:00:44.253Z,23.74
2023-05-17T20:03:12.409Z,23.75
2023-05-17T20:05:40.565Z,23.74
2023-05-17T20:08:13.971Z,23.74
2023-05-17T20:10:43.861Z,23.73
2023-05-17T20:13:18.047Z,23.73
2023-05-17T20:15:47.531Z,23.73
2023-05-17T20:18:16.660Z,23.73
2023-05-17T20:20:51.002Z,23.69
2023-05-17T20:23:18.975Z,23.70
2023-05-17T20:25:47.258Z,23.69
2023-05-17T20:28:16.356Z,23.68
2023-05-17T20:30:45.373Z,23.69
2023-05-17T20:33:14.832Z,23.68
2023-05-17T20:35:43.995Z,23.68
2023-05-17T20:38:12.110Z,23.66
2023-05-17T20:40:47.061Z,23.67
2023-05-17T20:43:16.770Z,23.66
2023-05-17T20:45:45.940Z,23.66
2023-05-17T20:48:16.469Z,23.67
2023-05-17T20:50:44.686Z,23.66
2023-05-17T20:53:12.740Z,23.66
2023-05-17T20:55:44.228Z,23.66
2023-05-17T20:58:12.490Z,23.66
2023-05-17T21:00:42.542Z,23.66
2023-05-17T21:03:11.197Z,23.66
2023-05-17T21:05:40.782Z,23.67
2023-05-17T21:08:10.019Z,23.66
2023-05-17T21:10:40.723Z,23.63
2023-05-17T21:13:10.956Z,23.65
2023-05-17T21:15:39.062Z,23.63
2023-05-17T21:18:08.254Z,23.64
2023-05-17T21:20:36.329Z,23.63
2023-05-17T21:23:05.812Z,23.63
2023-05-17T21:25:35.249Z,23.62
2023-05-17T21:28:03.260Z,23.62
2023-05-17T21:30:32.283Z,23.62
2023-05-17T21:33:00.603Z,23.62
2023-05-17T21:35:28.601Z,23.61
2023-05-17T21:37:57.446Z,23.62
2023-05-17T21:40:29.265Z,23.61
2023-05-17T21:42:58.316Z,23.61
2023-05-17T21:45:26.398Z,23.61
2023-05-17T21:47:54.340Z,23.60
2023-05-17T21:50:23.316Z,23.58
2023-05-17T21:52:51.368Z,23.59
2023-05-17T21:55:20.291Z,23.60
2023-05-17T21:57:49.744Z,23.59
2023-05-17T22:00:22.333Z,23.59
2023-05-17T22:02:50.754Z,23.59
2023-05-17T22:05:18.896Z,23.59
2023-05-17T22:07:47.714Z,23.57
2023-05-17T22:10:17.849Z,23.59
2023-05-17T22:12:47.525Z,23.58
2023-05-17T22:15:17.229Z,23.57
2023-05-17T22:17:51.805Z,23.57
2023-05-17T22:20:24.249Z,23.57
2023-05-17T22:22:52.313Z,23.57
2023-05-17T22:25:20.902Z,23.56
2023-05-17T22:27:48.940Z,23.55
2023-05-17T22:30:18.972Z,23.56
2023-05-17T22:32:47.077Z,23.56
2023-05-17T22:35:15.224Z,23.55
2023-05-17T22:37:45.501Z,23.55
2023-05-17T22:40:14.453Z,23.56
2023-05-17T22:42:43.214Z,23.55
2023-05-17T22:45:12.710Z,23.54
2023-05-17T22:47:43.535Z,23.54
2023-05-17T22:50:13.636Z,23.54
2023-05-17T22:52:42.798Z,23.54
2023-05-17T22:55:11.395Z,23.52
2023-05-17T22:57:39.395Z,23.52
2023-05-17T23:00:09.404Z,23.54
2023-05-17T23:02:37.389Z,23.53
2023-05-17T23:05:07.636Z,23.52
2023-05-17T23:07:38.630Z,23.52
2023-05-17T23:10:07.462Z,23.51
2023-05-17T23:12:36.056Z,23.53
2023-05-17T23:15:05.126Z,23.52
2023-05-17T23:17:33.462Z,23.51
2023-05-17T23:20:07.190Z,23.51
2023-05-17T23:22:36.913Z,23.51
2023-05-17T23:25:06.494Z,23.51
2023-05-17T23:27:35.397Z,23.49
2023-05-17T23:30:04.405Z,23.48
2023-05-17T23:32:32.693Z,23.49
2023-05-17T23:35:04.057Z,23.48
2023-05-17T23:37:32.196Z,23.47
2023-05-17T23:40:01.497Z,23.46
2023-05-17T23:42:29.790Z,23.45
2023-05-17T23:44:57.858Z,23.44
2023-05-17T23:47:26.013Z,23.44
2023-05-17T23:49:54.076Z,23.42
2023-05-17T23:52:23.759Z,23.40
2023-05-17T23:54:52.015Z,23.40
2023-05-17T23:57:21.379Z,23.39
2023-05-17T23:59:49.411Z,23.39
